sensor_id;sensor_type;location;lat;lon;timestamp;P1;durP1;ratioP1;P2;durP2;ratioP2
67558;SDS011;54388;53.536;49.300;2023-04-25T00:00:54;8.63;;;1.80;;
67558;SDS011;54388;53.536;49.300;2023-04-25T00:03:23;3.88;;;1.90;;
67558;SDS011;54388;53.536;49.300;2023-04-25T00:05:53;9.18;;;2.13;;
67558;SDS011;54388;53.536;49.300;2023-04-25T00:08:25;6.28;;;2.00;;
67558;SDS011;54388;53.536;49.300;2023-04-25T00:10:54;11.23;;;2.20;;
67558;SDS011;54388;53.536;49.300;2023-04-25T00:13:24;6.30;;;2.20;;
67558;SDS011;54388;53.536;49.300;2023-04-25T00:15:54;7.97;;;2.35;;
67558;SDS011;54388;53.536;49.300;2023-04-25T00:18:30;8.73;;;2.67;;
67558;SDS011;54388;53.536;49.300;2023-04-25T00:21:02;9.90;;;2.22;;
67558;SDS011;54388;53.536;49.300;2023-04-25T00:23:31;9.38;;;3.10;;
67558;SDS011;54388;53.536;49.300;2023-04-25T00:26:00;7.00;;;2.47;;
67558;SDS011;54388;53.536;49.300;2023-04-25T00:28:29;7.72;;;2.25;;
67558;SDS011;54388;53.536;49.300;2023-04-25T00:30:58;5.68;;;2.20;;
67558;SDS011;54388;53.536;49.300;2023-04-25T00:33:29;8.60;;;2.70;;
67558;SDS011;54388;53.536;49.300;2023-04-25T00:36:00;10.88;;;2.40;;
67558;SDS011;54388;53.536;49.300;2023-04-25T00:38:29;13.82;;;2.97;;
67558;SDS011;54388;53.536;49.300;2023-04-25T00:40:58;9.02;;;2.50;;
67558;SDS011;54388;53.536;49.300;2023-04-25T00:43:27;11.52;;;2.90;;
67558;SDS011;54388;53.536;49.300;2023-04-25T00:45:59;9.48;;;2.78;;
67558;SDS011;54388;53.536;49.300;2023-04-25T00:48:28;11.68;;;2.90;;
67558;SDS011;54388;53.536;49.300;2023-04-25T00:50:59;7.43;;;2.60;;
67558;SDS011;54388;53.536;49.300;2023-04-25T00:53:31;11.60;;;2.63;;
67558;SDS011;54388;53.536;49.300;2023-04-25T00:56:00;8.15;;;2.67;;
67558;SDS011;54388;53.536;49.300;2023-04-25T00:58:29;8.15;;;2.70;;
67558;SDS011;54388;53.536;49.300;2023-04-25T01:00:57;7.28;;;2.47;;
67558;SDS011;54388;53.536;49.300;2023-04-25T01:03:28;8.85;;;2.85;;
67558;SDS011;54388;53.536;49.300;2023-04-25T01:05:58;10.32;;;2.83;;
67558;SDS011;54388;53.536;49.300;2023-04-25T01:08:30;8.18;;;2.78;;
67558;SDS011;54388;53.536;49.300;2023-04-25T01:10:56;7.25;;;3.00;;
67558;SDS011;54388;53.536;49.300;2023-04-25T01:13:28;10.02;;;2.72;;
67558;SDS011;54388;53.536;49.300;2023-04-25T01:15:55;11.32;;;3.08;;
67558;SDS011;54388;53.536;49.300;2023-04-25T01:18:24;11.00;;;2.97;;
67558;SDS011;54388;53.536;49.300;2023-04-25T01:20:51;9.40;;;2.65;;
67558;SDS011;54388;53.536;49.300;2023-04-25T01:23:22;8.95;;;3.25;;
67558;SDS011;54388;53.536;49.300;2023-04-25T01:25:49;9.43;;;3.00;;
67558;SDS011;54388;53.536;49.300;2023-04-25T01:28:18;7.85;;;2.80;;
67558;SDS011;54388;53.536;49.300;2023-04-25T01:30:48;5.28;;;2.63;;
67558;SDS011;54388;53.536;49.300;2023-04-25T01:33:17;10.27;;;3.00;;
67558;SDS011;54388;53.536;49.300;2023-04-25T01:35:46;11.82;;;2.90;;
67558;SDS011;54388;53.536;49.300;2023-04-25T01:38:15;9.32;;;2.53;;
67558;SDS011;54388;53.536;49.300;2023-04-25T01:40:44;11.18;;;3.35;;
67558;SDS011;54388;53.536;49.300;2023-04-25T01:43:15;7.65;;;3.15;;
67558;SDS011;54388;53.536;49.300;2023-04-25T01:45:43;8.75;;;3.13;;
67558;SDS011;54388;53.536;49.300;2023-04-25T01:48:13;7.85;;;3.58;;
67558;SDS011;54388;53.536;49.300;2023-04-25T01:50:45;10.90;;;3.00;;
67558;SDS011;54388;53.536;49.300;2023-04-25T01:53:14;10.88;;;3.30;;
67558;SDS011;54388;53.536;49.300;2023-04-25T01:55:46;10.48;;;3.17;;
67558;SDS011;54388;53.536;49.300;2023-04-25T01:58:13;11.07;;;3.00;;
67558;SDS011;54388;53.536;49.300;2023-04-25T02:00:45;10.40;;;3.33;;
67558;SDS011;54388;53.536;49.300;2023-04-25T02:03:15;10.02;;;2.90;;
67558;SDS011;54388;53.536;49.300;2023-04-25T02:05:43;14.43;;;3.17;;
67558;SDS011;54388;53.536;49.300;2023-04-25T02:08:13;8.48;;;2.80;;
67558;SDS011;54388;53.536;49.300;2023-04-25T02:10:40;9.95;;;2.55;;
67558;SDS011;54388;53.536;49.300;2023-04-25T02:13:07;10.70;;;3.33;;
67558;SDS011;54388;53.536;49.300;2023-04-25T02:15:36;10.18;;;3.10;;
67558;SDS011;54388;53.536;49.300;2023-04-25T02:18:07;9.82;;;3.33;;
67558;SDS011;54388;53.536;49.300;2023-04-25T02:20:36;11.43;;;3.42;;
67558;SDS011;54388;53.536;49.300;2023-04-25T02:23:05;7.13;;;2.83;;
67558;SDS011;54388;53.536;49.300;2023-04-25T02:25:32;14.60;;;3.15;;
67558;SDS011;54388;53.536;49.300;2023-04-25T02:27:59;11.95;;;2.90;;
67558;SDS011;54388;53.536;49.300;2023-04-25T02:30:26;7.55;;;2.58;;
67558;SDS011;54388;53.536;49.300;2023-04-25T02:32:55;8.00;;;2.15;;
67558;SDS011;54388;53.536;49.300;2023-04-25T02:35:25;8.82;;;2.38;;
67558;SDS011;54388;53.536;49.300;2023-04-25T02:37:54;7.25;;;2.15;;
67558;SDS011;54388;53.536;49.300;2023-04-25T02:40:23;8.18;;;2.50;;
67558;SDS011;54388;53.536;49.300;2023-04-25T02:42:53;4.88;;;2.05;;
67558;SDS011;54388;53.536;49.300;2023-04-25T02:45:20;7.80;;;2.50;;
67558;SDS011;54388;53.536;49.300;2023-04-25T02:47:50;9.15;;;2.38;;
67558;SDS011;54388;53.536;49.300;2023-04-25T02:50:17;10.77;;;2.30;;
67558;SDS011;54388;53.536;49.300;2023-04-25T02:52:44;7.47;;;2.53;;
67558;SDS011;54388;53.536;49.300;2023-04-25T02:55:13;10.45;;;3.30;;
67558;SDS011;54388;53.536;49.300;2023-04-25T02:57:40;11.55;;;2.65;;
67558;SDS011;54388;53.536;49.300;2023-04-25T03:00:09;8.63;;;3.13;;
67558;SDS011;54388;53.536;49.300;2023-04-25T03:02:39;8.38;;;2.95;;
67558;SDS011;54388;53.536;49.300;2023-04-25T03:05:08;7.68;;;2.75;;
67558;SDS011;54388;53.536;49.300;2023-04-25T03:07:37;8.38;;;3.22;;
67558;SDS011;54388;53.536;49.300;2023-04-25T03:10:08;6.03;;;2.05;;
67558;SDS011;54388;53.536;49.300;2023-04-25T03:12:37;7.38;;;2.70;;
67558;SDS011;54388;53.536;49.300;2023-04-25T03:15:07;4.40;;;2.17;;
67558;SDS011;54388;53.536;49.300;2023-04-25T03:17:36;6.35;;;2.20;;
67558;SDS011;54388;53.536;49.300;2023-04-25T03:20:08;8.20;;;3.00;;
67558;SDS011;54388;53.536;49.300;2023-04-25T03:22:39;4.25;;;2.40;;
67558;SDS011;54388;53.536;49.300;2023-04-25T03:25:10;5.57;;;2.20;;
67558;SDS011;54388;53.536;49.300;2023-04-25T03:27:39;5.78;;;2.40;;
67558;SDS011;54388;53.536;49.300;2023-04-25T03:30:08;7.13;;;3.03;;
67558;SDS011;54388;53.536;49.300;2023-04-25T03:32:35;8.45;;;3.10;;
67558;SDS011;54388;53.536;49.300;2023-04-25T03:35:01;10.30;;;3.88;;
67558;SDS011;54388;53.536;49.300;2023-04-25T03:37:28;8.65;;;3.60;;
67558;SDS011;54388;53.536;49.300;2023-04-25T03:39:58;10.68;;;3.50;;
67558;SDS011;54388;53.536;49.300;2023-04-25T03:42:26;7.20;;;2.70;;
67558;SDS011;54388;53.536;49.300;2023-04-25T03:44:55;8.55;;;2.67;;
67558;SDS011;54388;53.536;49.300;2023-04-25T03:47:24;7.85;;;2.60;;
67558;SDS011;54388;53.536;49.300;2023-04-25T03:49:51;7.85;;;2.42;;
67558;SDS011;54388;53.536;49.300;2023-04-25T03:52:17;6.80;;;2.90;;
67558;SDS011;54388;53.536;49.300;2023-04-25T03:54:46;11.25;;;2.83;;
67558;SDS011;54388;53.536;49.300;2023-04-25T03:57:15;7.43;;;2.67;;
67558;SDS011;54388;53.536;49.300;2023-04-25T03:59:44;7.50;;;3.05;;
67558;SDS011;54388;53.536;49.300;2023-04-25T04:02:14;11.20;;;3.17;;
67558;SDS011;54388;53.536;49.300;2023-04-25T04:04:42;6.82;;;3.05;;
67558;SDS011;54388;53.536;49.300;2023-04-25T04:07:10;14.45;;;3.13;;
67558;SDS011;54388;53.536;49.300;2023-04-25T04:09:36;17.55;;;5.30;;
67558;SDS011;54388;53.536;49.300;2023-04-25T04:12:04;16.98;;;3.85;;
67558;SDS011;54388;53.536;49.300;2023-04-25T04:14:31;18.50;;;4.00;;
67558;SDS011;54388;53.536;49.300;2023-04-25T04:16:59;10.77;;;3.50;;
67558;SDS011;54388;53.536;49.300;2023-04-25T04:19:28;12.30;;;3.10;;
67558;SDS011;54388;53.536;49.300;2023-04-25T04:21:54;15.07;;;4.10;;
67558;SDS011;54388;53.536;49.300;2023-04-25T04:24:26;9.30;;;2.60;;
67558;SDS011;54388;53.536;49.300;2023-04-25T04:26:53;6.43;;;2.40;;
67558;SDS011;54388;53.536;49.300;2023-04-25T04:29:19;10.85;;;2.45;;
67558;SDS011;54388;53.536;49.300;2023-04-25T04:31:49;36.05;;;4.57;;
67558;SDS011;54388;53.536;49.300;2023-04-25T04:34:16;34.13;;;6.88;;
67558;SDS011;54388;53.536;49.300;2023-04-25T04:36:44;34.53;;;5.22;;
67558;SDS011;54388;53.536;49.300;2023-04-25T04:39:14;19.70;;;4.70;;
67558;SDS011;54388;53.536;49.300;2023-04-25T04:41:40;13.20;;;3.38;;
67558;SDS011;54388;53.536;49.300;2023-04-25T04:44:08;13.27;;;2.80;;
67558;SDS011;54388;53.536;49.300;2023-04-25T04:46:36;6.80;;;2.40;;
67558;SDS011;54388;53.536;49.300;2023-04-25T04:49:10;8.75;;;2.22;;
67558;SDS011;54388;53.536;49.300;2023-04-25T04:51:40;7.38;;;2.10;;
67558;SDS011;54388;53.536;49.300;2023-04-25T04:54:10;4.85;;;2.00;;
67558;SDS011;54388;53.536;49.300;2023-04-25T04:56:37;6.60;;;2.22;;
67558;SDS011;54388;53.536;49.300;2023-04-25T04:59:06;6.15;;;2.33;;
67558;SDS011;54388;53.536;49.300;2023-04-25T05:01:33;19.92;;;2.90;;
67558;SDS011;54388;53.536;49.300;2023-04-25T05:04:01;11.40;;;3.05;;
67558;SDS011;54388;53.536;49.300;2023-04-25T05:06:29;14.73;;;3.20;;
67558;SDS011;54388;53.536;49.300;2023-04-25T05:08:57;10.40;;;3.03;;
67558;SDS011;54388;53.536;49.300;2023-04-25T05:11:26;17.65;;;3.53;;
67558;SDS011;54388;53.536;49.300;2023-04-25T05:13:55;24.45;;;5.60;;
67558;SDS011;54388;53.536;49.300;2023-04-25T05:16:24;8.93;;;2.60;;
67558;SDS011;54388;53.536;49.300;2023-04-25T05:18:51;23.70;;;3.88;;
67558;SDS011;54388;53.536;49.300;2023-04-25T05:21:18;11.18;;;2.63;;
67558;SDS011;54388;53.536;49.300;2023-04-25T05:23:45;8.93;;;2.13;;
67558;SDS011;54388;53.536;49.300;2023-04-25T05:26:12;12.65;;;2.80;;
67558;SDS011;54388;53.536;49.300;2023-04-25T05:28:41;12.80;;;3.10;;
67558;SDS011;54388;53.536;49.300;2023-04-25T05:31:13;18.30;;;3.67;;
67558;SDS011;54388;53.536;49.300;2023-04-25T05:33:42;6.43;;;2.47;;
67558;SDS011;54388;53.536;49.300;2023-04-25T05:36:09;10.38;;;2.58;;
67558;SDS011;54388;53.536;49.300;2023-04-25T05:38:36;14.15;;;3.05;;
67558;SDS011;54388;53.536;49.300;2023-04-25T05:41:03;9.32;;;2.60;;
67558;SDS011;54388;53.536;49.300;2023-04-25T05:43:29;5.85;;;2.28;;
67558;SDS011;54388;53.536;49.300;2023-04-25T05:45:56;6.78;;;2.50;;
67558;SDS011;54388;53.536;49.300;2023-04-25T05:48:23;8.75;;;2.42;;
67558;SDS011;54388;53.536;49.300;2023-04-25T05:50:51;7.15;;;2.30;;
67558;SDS011;54388;53.536;49.300;2023-04-25T05:53:20;4.57;;;2.30;;
67558;SDS011;54388;53.536;49.300;2023-04-25T05:55:50;8.50;;;2.50;;
67558;SDS011;54388;53.536;49.300;2023-04-25T05:58:18;25.20;;;4.13;;
67558;SDS011;54388;53.536;49.300;2023-04-25T06:00:48;21.58;;;4.57;;
67558;SDS011;54388;53.536;49.300;2023-04-25T06:03:14;10.05;;;2.67;;
67558;SDS011;54388;53.536;49.300;2023-04-25T06:05:44;10.55;;;2.67;;
67558;SDS011;54388;53.536;49.300;2023-04-25T06:08:10;13.05;;;3.60;;
67558;SDS011;54388;53.536;49.300;2023-04-25T06:10:39;4.18;;;1.98;;
67558;SDS011;54388;53.536;49.300;2023-04-25T06:13:08;6.90;;;2.22;;
67558;SDS011;54388;53.536;49.300;2023-04-25T06:15:34;9.02;;;2.65;;
67558;SDS011;54388;53.536;49.300;2023-04-25T06:18:04;6.53;;;2.05;;
67558;SDS011;54388;53.536;49.300;2023-04-25T06:20:32;5.28;;;2.00;;
67558;SDS011;54388;53.536;49.300;2023-04-25T06:22:59;5.90;;;1.98;;
67558;SDS011;54388;53.536;49.300;2023-04-25T06:25:26;9.70;;;2.75;;
67558;SDS011;54388;53.536;49.300;2023-04-25T06:27:52;12.02;;;2.40;;
67558;SDS011;54388;53.536;49.300;2023-04-25T06:30:19;17.48;;;3.33;;
67558;SDS011;54388;53.536;49.300;2023-04-25T06:32:48;13.15;;;2.88;;
67558;SDS011;54388;53.536;49.300;2023-04-25T06:35:14;6.93;;;2.03;;
67558;SDS011;54388;53.536;49.300;2023-04-25T06:37:43;10.15;;;2.40;;
67558;SDS011;54388;53.536;49.300;2023-04-25T06:40:10;8.35;;;1.95;;
67558;SDS011;54388;53.536;49.300;2023-04-25T06:42:36;25.90;;;4.30;;
67558;SDS011;54388;53.536;49.300;2023-04-25T06:45:03;8.68;;;2.42;;
67558;SDS011;54388;53.536;49.300;2023-04-25T06:47:30;7.93;;;2.20;;
67558;SDS011;54388;53.536;49.300;2023-04-25T06:49:57;13.35;;;2.80;;
67558;SDS011;54388;53.536;49.300;2023-04-25T06:52:23;6.47;;;2.15;;
67558;SDS011;54388;53.536;49.300;2023-04-25T06:54:53;6.85;;;2.05;;
67558;SDS011;54388;53.536;49.300;2023-04-25T06:57:21;6.45;;;2.00;;
67558;SDS011;54388;53.536;49.300;2023-04-25T06:59:51;6.93;;;1.90;;
67558;SDS011;54388;53.536;49.300;2023-04-25T07:02:20;8.57;;;2.20;;
67558;SDS011;54388;53.536;49.300;2023-04-25T07:04:48;6.65;;;2.08;;
67558;SDS011;54388;53.536;49.300;2023-04-25T07:07:15;4.53;;;1.70;;
67558;SDS011;54388;53.536;49.300;2023-04-25T07:09:45;7.53;;;2.17;;
67558;SDS011;54388;53.536;49.300;2023-04-25T07:12:12;7.88;;;2.40;;
67558;SDS011;54388;53.536;49.300;2023-04-25T07:14:38;8.43;;;2.55;;
67558;SDS011;54388;53.536;49.300;2023-04-25T07:17:05;7.35;;;2.10;;
67558;SDS011;54388;53.536;49.300;2023-04-25T07:19:35;4.30;;;1.92;;
67558;SDS011;54388;53.536;49.300;2023-04-25T07:22:03;6.47;;;2.40;;
67558;SDS011;54388;53.536;49.300;2023-04-25T07:24:30;4.32;;;1.95;;
67558;SDS011;54388;53.536;49.300;2023-04-25T07:26:57;6.57;;;2.63;;
67558;SDS011;54388;53.536;49.300;2023-04-25T07:29:27;6.75;;;2.60;;
67558;SDS011;54388;53.536;49.300;2023-04-25T07:31:56;5.05;;;2.10;;
67558;SDS011;54388;53.536;49.300;2023-04-25T07:34:25;4.43;;;2.20;;
67558;SDS011;54388;53.536;49.300;2023-04-25T07:36:52;6.32;;;2.28;;
67558;SDS011;54388;53.536;49.300;2023-04-25T07:39:19;6.80;;;2.13;;
67558;SDS011;54388;53.536;49.300;2023-04-25T07:41:48;4.78;;;2.30;;
67558;SDS011;54388;53.536;49.300;2023-04-25T07:44:17;7.80;;;2.45;;
67558;SDS011;54388;53.536;49.300;2023-04-25T07:46:44;6.00;;;2.05;;
67558;SDS011;54388;53.536;49.300;2023-04-25T07:49:12;8.80;;;2.78;;
67558;SDS011;54388;53.536;49.300;2023-04-25T07:51:41;6.47;;;2.42;;
67558;SDS011;54388;53.536;49.300;2023-04-25T07:54:12;7.53;;;2.33;;
67558;SDS011;54388;53.536;49.300;2023-04-25T07:56:40;8.00;;;2.58;;
67558;SDS011;54388;53.536;49.300;2023-04-25T07:59:06;15.35;;;2.97;;
67558;SDS011;54388;53.536;49.300;2023-04-25T08:01:36;9.50;;;2.60;;
67558;SDS011;54388;53.536;49.300;2023-04-25T08:04:05;10.85;;;2.30;;
67558;SDS011;54388;53.536;49.300;2023-04-25T08:06:37;8.63;;;2.50;;
67558;SDS011;54388;53.536;49.300;2023-04-25T08:09:04;5.38;;;2.17;;
67558;SDS011;54388;53.536;49.300;2023-04-25T08:11:30;8.07;;;2.10;;
67558;SDS011;54388;53.536;49.300;2023-04-25T08:13:57;5.00;;;1.60;;
67558;SDS011;54388;53.536;49.300;2023-04-25T08:16:24;7.57;;;2.38;;
67558;SDS011;54388;53.536;49.300;2023-04-25T08:18:51;30.42;;;4.03;;
67558;SDS011;54388;53.536;49.300;2023-04-25T08:21:20;8.60;;;1.90;;
67558;SDS011;54388;53.536;49.300;2023-04-25T08:23:48;10.05;;;2.00;;
67558;SDS011;54388;53.536;49.300;2023-04-25T08:26:14;11.00;;;2.00;;
67558;SDS011;54388;53.536;49.300;2023-04-25T08:28:43;11.30;;;2.17;;
67558;SDS011;54388;53.536;49.300;2023-04-25T08:31:10;26.50;;;3.47;;
67558;SDS011;54388;53.536;49.300;2023-04-25T08:33:37;22.13;;;3.35;;
67558;SDS011;54388;53.536;49.300;2023-04-25T08:36:04;9.98;;;2.10;;
67558;SDS011;54388;53.536;49.300;2023-04-25T08:38:31;21.20;;;3.78;;
67558;SDS011;54388;53.536;49.300;2023-04-25T08:41:02;18.05;;;2.85;;
67558;SDS011;54388;53.536;49.300;2023-04-25T08:43:32;11.52;;;2.30;;
67558;SDS011;54388;53.536;49.300;2023-04-25T08:46:00;23.00;;;3.30;;
67558;SDS011;54388;53.536;49.300;2023-04-25T08:48:28;13.57;;;2.35;;
67558;SDS011;54388;53.536;49.300;2023-04-25T08:50:55;12.18;;;2.05;;
67558;SDS011;54388;53.536;49.300;2023-04-25T08:53:25;16.40;;;2.65;;
67558;SDS011;54388;53.536;49.300;2023-04-25T08:55:56;9.27;;;1.98;;
67558;SDS011;54388;53.536;49.300;2023-04-25T08:58:24;14.77;;;2.30;;
67558;SDS011;54388;53.536;49.300;2023-04-25T09:00:51;6.40;;;1.73;;
67558;SDS011;54388;53.536;49.300;2023-04-25T09:03:18;8.07;;;2.00;;
67558;SDS011;54388;53.536;49.300;2023-04-25T09:05:45;11.73;;;2.22;;
67558;SDS011;54388;53.536;49.300;2023-04-25T09:08:11;9.75;;;2.05;;
67558;SDS011;54388;53.536;49.300;2023-04-25T09:10:39;4.32;;;1.70;;
67558;SDS011;54388;53.536;49.300;2023-04-25T09:13:10;5.15;;;2.08;;
67558;SDS011;54388;53.536;49.300;2023-04-25T09:15:53;12.18;;;2.80;;
67558;SDS011;54388;53.536;49.300;2023-04-25T09:18:24;12.50;;;2.25;;
67558;SDS011;54388;53.536;49.300;2023-04-25T09:21:08;21.95;;;3.42;;
67558;SDS011;54388;53.536;49.300;2023-04-25T09:23:43;22.30;;;3.80;;
67558;SDS011;54388;53.536;49.300;2023-04-25T09:26:13;7.32;;;2.00;;
67558;SDS011;54388;53.536;49.300;2023-04-25T09:28:44;7.55;;;1.75;;
67558;SDS011;54388;53.536;49.300;2023-04-25T09:31:22;8.50;;;1.98;;
67558;SDS011;54388;53.536;49.300;2023-04-25T09:34:01;7.95;;;2.55;;
67558;SDS011;54388;53.536;49.300;2023-04-25T09:36:29;7.43;;;1.92;;
67558;SDS011;54388;53.536;49.300;2023-04-25T09:38:56;10.57;;;2.58;;
67558;SDS011;54388;53.536;49.300;2023-04-25T09:41:26;5.97;;;1.98;;
67558;SDS011;54388;53.536;49.300;2023-04-25T09:43:53;10.55;;;3.33;;
67558;SDS011;54388;53.536;49.300;2023-04-25T09:46:24;10.68;;;2.17;;
67558;SDS011;54388;53.536;49.300;2023-04-25T09:48:50;15.13;;;4.22;;
67558;SDS011;54388;53.536;49.300;2023-04-25T09:51:19;6.65;;;2.10;;
67558;SDS011;54388;53.536;49.300;2023-04-25T09:53:46;9.70;;;2.50;;
67558;SDS011;54388;53.536;49.300;2023-04-25T09:56:16;9.70;;;2.40;;
67558;SDS011;54388;53.536;49.300;2023-04-25T09:58:45;9.02;;;2.22;;
67558;SDS011;54388;53.536;49.300;2023-04-25T10:01:16;8.43;;;2.40;;
67558;SDS011;54388;53.536;49.300;2023-04-25T10:03:43;11.23;;;2.60;;
67558;SDS011;54388;53.536;49.300;2023-04-25T10:06:12;10.52;;;2.45;;
67558;SDS011;54388;53.536;49.300;2023-04-25T10:08:43;8.50;;;2.55;;
67558;SDS011;54388;53.536;49.300;2023-04-25T10:11:11;10.80;;;2.63;;
67558;SDS011;54388;53.536;49.300;2023-04-25T10:13:43;9.32;;;2.30;;
67558;SDS011;54388;53.536;49.300;2023-04-25T10:16:13;9.48;;;2.10;;
67558;SDS011;54388;53.536;49.300;2023-04-25T10:18:40;10.80;;;5.05;;
67558;SDS011;54388;53.536;49.300;2023-04-25T10:21:09;8.82;;;2.25;;
67558;SDS011;54388;53.536;49.300;2023-04-25T10:23:36;7.00;;;1.77;;
67558;SDS011;54388;53.536;49.300;2023-04-25T10:26:08;9.43;;;1.90;;
67558;SDS011;54388;53.536;49.300;2023-04-25T10:29:11;6.45;;;2.13;;
67558;SDS011;54388;53.536;49.300;2023-04-25T10:31:31;5.28;;;1.88;;
67558;SDS011;54388;53.536;49.300;2023-04-25T10:34:01;13.55;;;2.92;;
67558;SDS011;54388;53.536;49.300;2023-04-25T10:36:27;11.48;;;2.30;;
67558;SDS011;54388;53.536;49.300;2023-04-25T10:38:58;7.88;;;2.20;;
67558;SDS011;54388;53.536;49.300;2023-04-25T10:41:53;8.00;;;2.45;;
67558;SDS011;54388;53.536;49.300;2023-04-25T10:44:28;8.82;;;2.92;;
67558;SDS011;54388;53.536;49.300;2023-04-25T10:46:56;6.55;;;1.63;;
67558;SDS011;54388;53.536;49.300;2023-04-25T10:54:49;7.40;;;2.28;;
67558;SDS011;54388;53.536;49.300;2023-04-25T11:00:06;9.10;;;2.85;;
67558;SDS011;54388;53.536;49.300;2023-04-25T11:02:37;6.70;;;2.05;;
67558;SDS011;54388;53.536;49.300;2023-04-25T11:05:33;10.55;;;2.70;;
67558;SDS011;54388;53.536;49.300;2023-04-25T11:08:00;10.57;;;2.60;;
67558;SDS011;54388;53.536;49.300;2023-04-25T11:10:33;6.40;;;2.00;;
67558;SDS011;54388;53.536;49.300;2023-04-25T11:13:02;10.52;;;2.72;;
67558;SDS011;54388;53.536;49.300;2023-04-25T11:15:33;12.88;;;3.60;;
67558;SDS011;54388;53.536;49.300;2023-04-25T11:18:05;11.70;;;3.15;;
67558;SDS011;54388;53.536;49.300;2023-04-25T11:20:32;9.52;;;2.80;;
67558;SDS011;54388;53.536;49.300;2023-04-25T11:22:59;8.50;;;2.35;;
67558;SDS011;54388;53.536;49.300;2023-04-25T11:25:28;8.25;;;2.17;;
67558;SDS011;54388;53.536;49.300;2023-04-25T11:27:58;8.73;;;3.53;;
67558;SDS011;54388;53.536;49.300;2023-04-25T11:30:28;9.85;;;2.45;;
67558;SDS011;54388;53.536;49.300;2023-04-25T11:32:56;5.93;;;2.22;;
67558;SDS011;54388;53.536;49.300;2023-04-25T11:35:25;13.38;;;2.60;;
67558;SDS011;54388;53.536;49.300;2023-04-25T11:37:52;10.02;;;3.10;;
67558;SDS011;54388;53.536;49.300;2023-04-25T11:40:22;6.15;;;2.00;;
67558;SDS011;54388;53.536;49.300;2023-04-25T11:42:52;7.72;;;2.50;;
67558;SDS011;54388;53.536;49.300;2023-04-25T11:45:18;8.80;;;2.00;;
67558;SDS011;54388;53.536;49.300;2023-04-25T11:47:46;12.98;;;2.63;;
67558;SDS011;54388;53.536;49.300;2023-04-25T11:50:18;7.85;;;2.13;;
67558;SDS011;54388;53.536;49.300;2023-04-25T11:52:46;9.18;;;2.50;;
67558;SDS011;54388;53.536;49.300;2023-04-25T11:55:14;7.30;;;1.70;;
67558;SDS011;54388;53.536;49.300;2023-04-25T11:57:44;5.45;;;2.17;;
67558;SDS011;54388;53.536;49.300;2023-04-25T12:00:12;5.03;;;1.70;;
67558;SDS011;54388;53.536;49.300;2023-04-25T12:02:43;7.78;;;3.22;;
67558;SDS011;54388;53.536;49.300;2023-04-25T12:05:13;6.72;;;2.30;;
67558;SDS011;54388;53.536;49.300;2023-04-25T12:07:42;8.48;;;3.00;;
67558;SDS011;54388;53.536;49.300;2023-04-25T12:10:11;12.15;;;4.72;;
67558;SDS011;54388;53.536;49.300;2023-04-25T12:12:43;7.15;;;3.10;;
67558;SDS011;54388;53.536;49.300;2023-04-25T12:15:15;15.00;;;3.40;;
67558;SDS011;54388;53.536;49.300;2023-04-25T12:17:49;17.42;;;3.00;;
67558;SDS011;54388;53.536;49.300;2023-04-25T12:20:20;12.63;;;3.05;;
67558;SDS011;54388;53.536;49.300;2023-04-25T12:22:51;9.57;;;2.85;;
67558;SDS011;54388;53.536;49.300;2023-04-25T12:28:24;4.70;;;2.17;;
67558;SDS011;54388;53.536;49.300;2023-04-25T12:33:27;11.77;;;2.85;;
67558;SDS011;54388;53.536;49.300;2023-04-25T12:36:02;7.93;;;2.40;;
67558;SDS011;54388;53.536;49.300;2023-04-25T12:38:37;7.55;;;2.50;;
67558;SDS011;54388;53.536;49.300;2023-04-25T12:41:10;7.65;;;3.00;;
67558;SDS011;54388;53.536;49.300;2023-04-25T12:43:37;11.05;;;4.10;;
67558;SDS011;54388;53.536;49.300;2023-04-25T12:46:06;8.20;;;3.45;;
67558;SDS011;54388;53.536;49.300;2023-04-25T12:48:35;6.25;;;2.65;;
67558;SDS011;54388;53.536;49.300;2023-04-25T12:51:04;9.50;;;3.38;;
67558;SDS011;54388;53.536;49.300;2023-04-25T12:53:31;7.13;;;3.22;;
67558;SDS011;54388;53.536;49.300;2023-04-25T12:55:58;9.55;;;3.30;;
67558;SDS011;54388;53.536;49.300;2023-04-25T12:58:24;9.10;;;3.50;;
67558;SDS011;54388;53.536;49.300;2023-04-25T13:00:51;9.63;;;3.25;;
67558;SDS011;54388;53.536;49.300;2023-04-25T13:03:18;9.15;;;3.45;;
67558;SDS011;54388;53.536;49.300;2023-04-25T13:05:45;6.97;;;3.35;;
67558;SDS011;54388;53.536;49.300;2023-04-25T13:08:12;7.55;;;3.40;;
67558;SDS011;54388;53.536;49.300;2023-04-25T13:10:39;9.68;;;3.60;;
67558;SDS011;54388;53.536;49.300;2023-04-25T13:13:06;12.18;;;3.30;;
67558;SDS011;54388;53.536;49.300;2023-04-25T13:15:35;8.93;;;3.80;;
67558;SDS011;54388;53.536;49.300;2023-04-25T13:18:05;14.57;;;5.13;;
67558;SDS011;54388;53.536;49.300;2023-04-25T13:20:33;11.00;;;4.55;;
67558;SDS011;54388;53.536;49.300;2023-04-25T13:22:59;8.82;;;3.90;;
67558;SDS011;54388;53.536;49.300;2023-04-25T13:25:26;11.85;;;3.80;;
67558;SDS011;54388;53.536;49.300;2023-04-25T13:27:53;15.10;;;4.50;;
67558;SDS011;54388;53.536;49.300;2023-04-25T13:30:23;20.35;;;5.03;;
67558;SDS011;54388;53.536;49.300;2023-04-25T13:32:50;9.98;;;4.40;;
67558;SDS011;54388;53.536;49.300;2023-04-25T13:35:17;9.88;;;4.10;;
67558;SDS011;54388;53.536;49.300;2023-04-25T13:37:46;18.90;;;5.60;;
67558;SDS011;54388;53.536;49.300;2023-04-25T13:40:13;17.25;;;6.32;;
67558;SDS011;54388;53.536;49.300;2023-04-25T13:42:45;18.40;;;6.20;;
67558;SDS011;54388;53.536;49.300;2023-04-25T13:45:15;11.38;;;5.50;;
67558;SDS011;54388;53.536;49.300;2023-04-25T13:47:42;10.30;;;4.95;;
67558;SDS011;54388;53.536;49.300;2023-04-25T13:50:09;7.38;;;3.58;;
67558;SDS011;54388;53.536;49.300;2023-04-25T13:52:41;8.00;;;3.80;;
67558;SDS011;54388;53.536;49.300;2023-04-25T13:55:11;8.95;;;3.83;;
67558;SDS011;54388;53.536;49.300;2023-04-25T13:57:38;7.55;;;3.75;;
67558;SDS011;54388;53.536;49.300;2023-04-25T14:00:05;10.35;;;4.15;;
67558;SDS011;54388;53.536;49.300;2023-04-25T14:02:34;7.55;;;4.10;;
67558;SDS011;54388;53.536;49.300;2023-04-25T14:05:02;9.30;;;4.82;;
67558;SDS011;54388;53.536;49.300;2023-04-25T14:07:33;16.95;;;5.00;;
67558;SDS011;54388;53.536;49.300;2023-04-25T14:10:03;11.18;;;6.03;;
67558;SDS011;54388;53.536;49.300;2023-04-25T14:12:31;11.38;;;5.03;;
67558;SDS011;54388;53.536;49.300;2023-04-25T14:14:58;14.25;;;4.93;;
67558;SDS011;54388;53.536;49.300;2023-04-25T14:17:28;11.23;;;4.47;;
67558;SDS011;54388;53.536;49.300;2023-04-25T14:19:57;9.27;;;4.63;;
67558;SDS011;54388;53.536;49.300;2023-04-25T14:22:25;10.38;;;5.28;;
67558;SDS011;54388;53.536;49.300;2023-04-25T14:24:52;10.50;;;4.45;;
67558;SDS011;54388;53.536;49.300;2023-04-25T14:27:20;7.20;;;4.28;;
67558;SDS011;54388;53.536;49.300;2023-04-25T14:29:47;11.15;;;4.60;;
67558;SDS011;54388;53.536;49.300;2023-04-25T14:32:14;12.95;;;4.68;;
67558;SDS011;54388;53.536;49.300;2023-04-25T14:34:41;14.88;;;5.20;;
67558;SDS011;54388;53.536;49.300;2023-04-25T14:37:07;12.25;;;4.43;;
67558;SDS011;54388;53.536;49.300;2023-04-25T14:39:34;9.10;;;4.15;;
67558;SDS011;54388;53.536;49.300;2023-04-25T14:42:02;10.07;;;4.35;;
67558;SDS011;54388;53.536;49.300;2023-04-25T14:44:31;13.70;;;4.70;;
67558;SDS011;54388;53.536;49.300;2023-04-25T14:46:58;14.75;;;5.32;;
67558;SDS011;54388;53.536;49.300;2023-04-25T14:49:25;7.38;;;3.50;;
67558;SDS011;54388;53.536;49.300;2023-04-25T14:51:52;8.00;;;4.47;;